Time;durP1;ratioP1;P1;durP2;ratioP2;P2;SDS_P1;SDS_P2;PMS_P1;PMS_P2;Temp;Humidity;BMP_temperature;BMP_pressure;BME280_temperature;BME280_humidity;BME280_pressure;Samples;Min_cycle;Max_cycle;Signal;HPM_P1;HPM_P2
2021/12/31 00:00:09;;;;;;;11.05;2.80;;;13.50;99.90;;;;;;4994120;28;20101;-86
2021/12/31 00:02:34;;;;;;;11.75;2.65;;;13.40;99.90;;;;;;5007811;28;20063;-87
2021/12/31 00:05:00;;;;;;;9.45;2.50;;;13.40;99.90;;;;;;5010024;28;20043;-86
2021/12/31 00:07:26;;;;;;;11.88;3.15;;;13.50;99.90;;;;;;5015013;28;20456;-85
2021/12/31 00:09:56;;;;;;;8.00;2.35;;;13.50;99.90;;;;;;5015055;28;20098;-91
2021/12/31 00:12:22;;;;;;;8.40;2.65;;;13.50;99.90;;;;;;5003205;28;20050;-87
2021/12/31 00:14:48;;;;;;;9.55;2.70;;;13.50;99.90;;;;;;4999678;28;20040;-88
2021/12/31 00:17:13;;;;;;;10.02;2.55;;;13.50;99.90;;;;;;5018385;28;20563;-86
2021/12/31 00:19:44;;;;;;;10.65;2.88;;;13.50;99.90;;;;;;5009863;28;20068;-86
2021/12/31 00:24:54;;;;;;;11.23;3.03;;;13.50;99.90;;;;;;4987414;28;20051;-84
2021/12/31 00:27:20;;;;;;;11.48;3.10;;;13.50;99.90;;;;;;5011972;28;20437;-87
2021/12/31 00:29:46;;;;;;;11.77;2.78;;;13.60;99.90;;;;;;5009154;28;20532;-88
2021/12/31 00:32:12;;;;;;;12.60;3.40;;;13.60;99.90;;;;;;5006654;28;20393;-89
2021/12/31 00:34:38;;;;;;;9.38;3.10;;;13.60;99.90;;;;;;5006160;28;20441;-91
2021/12/31 00:37:04;;;;;;;12.00;3.40;;;13.50;99.90;;;;;;5002984;28;20185;-84
2021/12/31 00:39:30;;;;;;;7.47;3.00;;;13.60;99.90;;;;;;5003903;28;20181;-85
2021/12/31 00:41:56;;;;;;;9.50;3.58;;;13.60;99.90;;;;;;5024416;28;20051;-87
2021/12/31 00:44:22;;;;;;;11.13;3.30;;;13.60;99.90;;;;;;5029071;28;20040;-85
2021/12/31 00:46:47;;;;;;;9.63;3.60;;;13.60;99.90;;;;;;5018021;28;20051;-85
2021/12/31 00:49:14;;;;;;;9.70;3.60;;;13.50;99.90;;;;;;5003199;28;20501;-87
2021/12/31 00:51:40;;;;;;;10.05;3.92;;;13.60;99.90;;;;;;5024085;28;20818;-84
2021/12/31 00:54:06;;;;;;;12.10;3.58;;;13.60;99.90;;;;;;5008352;28;20048;-87
2021/12/31 00:56:32;;;;;;;8.90;3.33;;;13.60;99.90;;;;;;5019224;28;20067;-86
2021/12/31 00:58:57;;;;;;;10.73;3.38;;;13.60;99.90;;;;;;5030445;28;20159;-88
2021/12/31 01:01:25;;;;;;;11.73;3.88;;;13.60;99.90;;;;;;5030433;28;20434;-86
2021/12/31 01:03:51;;;;;;;11.43;3.90;;;13.70;99.90;;;;;;5027649;28;20059;-85
2021/12/31 01:06:17;;;;;;;12.15;3.80;;;13.70;99.90;;;;;;4997040;28;20055;-84
2021/12/31 01:08:43;;;;;;;14.57;4.07;;;13.70;99.90;;;;;;5028023;28;20192;-83
2021/12/31 01:11:10;;;;;;;10.68;3.70;;;13.70;99.90;;;;;;5026118;28;20543;-85
2021/12/31 01:13:49;;;;;;;11.35;3.80;;;13.70;99.90;;;;;;5025788;28;20048;-86
2021/12/31 01:16:17;;;;;;;11.95;3.40;;;13.70;99.90;;;;;;5022489;28;20407;-85
2021/12/31 01:21:21;;;;;;;12.80;3.65;;;13.70;99.90;;;;;;5023802;28;20615;-85
2021/12/31 01:23:48;;;;;;;11.07;3.72;;;13.70;99.90;;;;;;5004638;28;20172;-87
2021/12/31 01:26:14;;;;;;;11.35;3.33;;;13.60;99.90;;;;;;5019526;28;20063;-86
2021/12/31 01:28:40;;;;;;;11.98;3.30;;;13.70;99.90;;;;;;5022862;28;21103;-86
2021/12/31 01:31:06;;;;;;;15.15;3.88;;;13.70;99.90;;;;;;5038959;28;20043;-86
2021/12/31 01:33:32;;;;;;;11.45;3.45;;;13.70;99.90;;;;;;5026028;28;20543;-88
2021/12/31 01:35:58;;;;;;;12.98;3.78;;;13.70;99.90;;;;;;5000797;28;20523;-86
2021/12/31 01:38:24;;;;;;;11.27;3.58;;;13.80;99.90;;;;;;4999235;28;20046;-86
2021/12/31 01:40:51;;;;;;;10.98;3.53;;;13.80;99.90;;;;;;5026119;28;20608;-87
2021/12/31 01:43:18;;;;;;;11.73;3.50;;;13.80;99.90;;;;;;5001701;28;20044;-87
2021/12/31 01:45:54;;;;;;;10.40;3.40;;;13.80;99.90;;;;;;5028870;28;20040;-86
2021/12/31 01:48:26;;;;;;;9.45;3.20;;;13.70;99.90;;;;;;5028343;28;20150;-87
2021/12/31 01:50:53;;;;;;;12.07;3.40;;;13.70;99.90;;;;;;5029976;28;20043;-86
2021/12/31 01:53:22;;;;;;;9.20;3.78;;;13.70;99.90;;;;;;5044491;28;20044;-87
2021/12/31 01:55:51;;;;;;;8.38;3.30;;;13.70;99.90;;;;;;5016198;28;20834;-85
2021/12/31 01:58:21;;;;;;;10.23;3.22;;;13.80;99.90;;;;;;5036099;28;20568;-88
2021/12/31 02:00:47;;;;;;;9.35;3.20;;;13.80;99.90;;;;;;5034040;28;20131;-86
2021/12/31 02:03:13;;;;;;;11.95;3.72;;;13.70;99.90;;;;;;5031962;28;20048;-88
2021/12/31 02:05:39;;;;;;;10.07;3.45;;;13.80;99.90;;;;;;5014124;28;20050;-87
2021/12/31 02:08:05;;;;;;;8.40;3.83;;;13.80;99.90;;;;;;5029811;28;20176;-86
2021/12/31 02:10:31;;;;;;;9.65;3.90;;;13.80;99.90;;;;;;5031699;28;20055;-86
2021/12/31 02:12:57;;;;;;;8.20;3.75;;;13.80;99.90;;;;;;5020589;28;20186;-86
2021/12/31 02:15:25;;;;;;;10.82;3.88;;;13.80;99.90;;;;;;4990217;28;20344;-85
2021/12/31 02:17:51;;;;;;;8.40;3.95;;;13.80;99.90;;;;;;4980498;28;20378;-84
2021/12/31 02:20:18;;;;;;;9.30;4.20;;;13.80;99.90;;;;;;4992425;28;20126;-89
2021/12/31 02:22:55;;;;;;;8.82;4.35;;;13.80;99.90;;;;;;4988287;28;20113;-85
2021/12/31 02:25:24;;;;;;;12.68;4.65;;;13.80;99.90;;;;;;4987405;28;20043;-85
2021/12/31 02:27:50;;;;;;;10.23;4.43;;;13.80;99.90;;;;;;5007684;28;20713;-89
2021/12/31 02:30:16;;;;;;;8.18;4.30;;;13.80;99.90;;;;;;4986326;28;20515;-87
2021/12/31 02:32:42;;;;;;;10.35;4.90;;;13.80;99.90;;;;;;4990812;28;20039;-86
2021/12/31 02:35:13;;;;;;;10.55;5.13;;;13.80;99.90;;;;;;4976025;28;20512;-87
2021/12/31 02:37:39;;;;;;;9.63;4.78;;;13.80;99.90;;;;;;5008616;28;20047;-87
2021/12/31 02:40:08;;;;;;;9.15;5.00;;;13.80;99.90;;;;;;4975128;28;20047;-87
2021/12/31 02:42:35;;;;;;;10.57;4.75;;;13.80;99.90;;;;;;4986212;28;20527;-86
2021/12/31 02:45:10;;;;;;;9.38;4.50;;;13.80;99.90;;;;;;4984426;28;20039;-87
2021/12/31 02:47:38;;;;;;;11.98;5.10;;;13.80;99.90;;;;;;4967313;28;20040;-86
2021/12/31 02:50:05;;;;;;;10.70;5.32;;;13.90;99.90;;;;;;4968927;28;20047;-88
2021/12/31 02:52:31;;;;;;;9.63;4.57;;;13.80;99.90;;;;;;4989449;28;20543;-87
2021/12/31 02:55:00;;;;;;;14.48;4.72;;;13.80;99.90;;;;;;4967176;28;20044;-86
2021/12/31 02:57:26;;;;;;;8.32;4.32;;;13.90;99.90;;;;;;4987327;28;20120;-86
2021/12/31 02:59:52;;;;;;;9.95;4.55;;;13.90;99.90;;;;;;4959381;28;20504;-87
2021/12/31 03:02:24;;;;;;;9.88;4.40;;;13.90;99.90;;;;;;4951880;28;20217;-88
2021/12/31 03:04:55;;;;;;;9.57;3.95;;;13.90;99.90;;;;;;4984061;28;20821;-84
2021/12/31 03:07:22;;;;;;;11.00;4.30;;;13.90;99.90;;;;;;4986210;28;20742;-87
2021/12/31 03:09:50;;;;;;;8.50;4.38;;;13.90;99.90;;;;;;4984369;28;20039;-85
2021/12/31 03:12:17;;;;;;;9.13;3.80;;;13.90;99.90;;;;;;4985604;28;20521;-89
2021/12/31 03:14:45;;;;;;;10.00;3.95;;;13.90;99.90;;;;;;4963945;28;20051;-86
2021/12/31 03:17:14;;;;;;;7.82;4.13;;;13.90;99.90;;;;;;4985752;28;20109;-85
2021/12/31 03:19:40;;;;;;;9.82;4.20;;;14.00;99.90;;;;;;4968265;28;20054;-85
2021/12/31 03:22:06;;;;;;;11.02;4.40;;;14.00;99.90;;;;;;4986191;28;20394;-82
2021/12/31 03:24:33;;;;;;;8.73;4.20;;;14.00;99.90;;;;;;4968860;28;20513;-86
2021/12/31 03:26:58;;;;;;;9.35;4.22;;;14.00;99.90;;;;;;4985272;28;20075;-85
2021/12/31 03:29:24;;;;;;;8.98;4.20;;;14.00;99.90;;;;;;4985124;28;20063;-86
2021/12/31 03:31:50;;;;;;;9.98;4.32;;;14.00;99.90;;;;;;4986822;28;20537;-85
2021/12/31 03:34:16;;;;;;;8.30;4.28;;;14.00;99.90;;;;;;4985564;28;20884;-85
2021/12/31 03:36:43;;;;;;;9.10;4.00;;;13.90;99.90;;;;;;4960751;28;20059;-84
2021/12/31 03:39:10;;;;;;;9.38;4.45;;;13.90;99.90;;;;;;4959602;28;20509;-86
2021/12/31 03:41:38;;;;;;;8.88;4.53;;;14.00;99.90;;;;;;4975537;28;20055;-87
2021/12/31 03:44:05;;;;;;;9.57;4.30;;;14.00;99.90;;;;;;5005061;28;20498;-86
2021/12/31 03:46:31;;;;;;;8.88;4.20;;;13.90;99.90;;;;;;4983719;28;20062;-84
2021/12/31 03:48:57;;;;;;;9.38;4.40;;;13.90;99.90;;;;;;5006931;28;20050;-87
2021/12/31 03:51:23;;;;;;;8.73;4.18;;;14.00;99.90;;;;;;4988281;28;20127;-85
2021/12/31 03:53:49;;;;;;;10.65;4.68;;;14.00;99.90;;;;;;5003775;28;20579;-86
2021/12/31 03:56:14;;;;;;;7.93;4.15;;;14.00;99.90;;;;;;4983820;28;20039;-82
2021/12/31 03:58:40;;;;;;;7.20;3.95;;;14.00;99.90;;;;;;4971944;28;20055;-87
2021/12/31 04:01:06;;;;;;;8.75;4.22;;;13.90;99.90;;;;;;4989614;28;20048;-86
2021/12/31 04:03:32;;;;;;;9.02;4.50;;;13.90;99.90;;;;;;5010540;28;20047;-85
2021/12/31 04:05:58;;;;;;;9.93;4.45;;;13.90;99.90;;;;;;5011915;28;20051;-87
2021/12/31 04:08:24;;;;;;;8.75;4.60;;;14.00;99.90;;;;;;4990934;28;20502;-87
2021/12/31 04:10:49;;;;;;;7.28;4.40;;;13.90;99.90;;;;;;5008608;28;20104;-86
2021/12/31 04:13:15;;;;;;;8.60;4.82;;;13.90;99.90;;;;;;4988270;28;20043;-86
2021/12/31 04:15:42;;;;;;;8.40;4.80;;;13.90;99.90;;;;;;5008290;28;20408;-86
2021/12/31 04:18:10;;;;;;;8.73;5.05;;;13.90;99.90;;;;;;4991739;28;20555;-86
2021/12/31 04:20:42;;;;;;;8.52;5.18;;;13.80;99.90;;;;;;5009678;28;20051;-84
2021/12/31 04:23:14;;;;;;;9.98;5.28;;;13.80;99.90;;;;;;5008140;28;20066;-85
2021/12/31 04:25:41;;;;;;;10.40;5.18;;;13.80;99.90;;;;;;5010734;28;20048;-86
2021/12/31 04:28:07;;;;;;;9.88;5.30;;;13.80;99.90;;;;;;5011268;28;20067;-87
2021/12/31 04:30:33;;;;;;;10.60;5.63;;;13.70;99.90;;;;;;5007041;28;20479;-87
2021/12/31 04:33:00;;;;;;;12.00;5.93;;;13.70;99.90;;;;;;5011953;28;20083;-87
2021/12/31 04:35:26;;;;;;;10.45;5.72;;;13.60;99.90;;;;;;5012132;28;20603;-88
2021/12/31 04:37:52;;;;;;;9.35;5.95;;;13.60;99.90;;;;;;4987127;28;20117;-87
2021/12/31 04:40:18;;;;;;;12.65;6.32;;;13.60;99.90;;;;;;5005718;28;20146;-87
2021/12/31 04:42:46;;;;;;;13.30;6.55;;;13.60;99.90;;;;;;5009097;28;20063;-85
2021/12/31 04:45:13;;;;;;;10.30;5.90;;;13.60;99.90;;;;;;5001969;28;20074;-86
2021/12/31 04:47:39;;;;;;;9.85;5.95;;;13.50;99.90;;;;;;4985516;28;20051;-87
2021/12/31 04:50:06;;;;;;;9.73;5.95;;;13.50;99.90;;;;;;5010933;28;20082;-86
2021/12/31 04:52:32;;;;;;;9.77;5.72;;;13.50;99.90;;;;;;5007762;28;20052;-85
2021/12/31 04:54:58;;;;;;;12.73;5.88;;;13.50;99.90;;;;;;5009007;28;20868;-87
2021/12/31 04:57:25;;;;;;;11.30;5.90;;;13.50;99.90;;;;;;4984932;28;20055;-86
2021/12/31 04:59:51;;;;;;;11.07;6.40;;;13.50;99.90;;;;;;5011620;28;20132;-86
2021/12/31 05:02:20;;;;;;;11.75;5.47;;;13.50;99.90;;;;;;5005747;28;20047;-85
2021/12/31 05:04:46;;;;;;;11.32;5.68;;;13.50;99.90;;;;;;4993257;28;20047;-86
2021/12/31 05:07:14;;;;;;;10.05;5.30;;;13.50;99.90;;;;;;5006877;28;20144;-88
2021/12/31 05:09:40;;;;;;;10.90;4.75;;;13.50;99.90;;;;;;4982677;28;20739;-86
2021/12/31 05:12:09;;;;;;;11.10;4.90;;;13.50;99.90;;;;;;5010016;28;20766;-87
2021/12/31 05:14:35;;;;;;;9.38;4.45;;;13.50;99.90;;;;;;4992576;28;20483;-87
2021/12/31 05:17:00;;;;;;;8.57;4.13;;;13.50;99.90;;;;;;5007218;28;20481;-87
2021/12/31 05:19:26;;;;;;;9.40;4.30;;;13.40;99.90;;;;;;5008465;28;20500;-86
2021/12/31 05:21:52;;;;;;;11.52;4.30;;;13.50;99.90;;;;;;5006875;28;20554;-87
2021/12/31 05:24:18;;;;;;;7.93;4.00;;;13.50;99.90;;;;;;4986908;28;20048;-85
2021/12/31 05:26:44;;;;;;;9.52;3.80;;;13.40;99.90;;;;;;5007271;28;20373;-87
2021/12/31 05:29:10;;;;;;;8.40;3.55;;;13.40;99.90;;;;;;4991071;28;20507;-88
2021/12/31 05:31:36;;;;;;;9.32;4.00;;;13.40;99.90;;;;;;5006621;28;20048;-85
2021/12/31 05:34:02;;;;;;;8.73;3.40;;;13.40;99.90;;;;;;5006419;28;20857;-86
2021/12/31 05:36:28;;;;;;;7.32;3.47;;;13.40;99.90;;;;;;4990683;28;21063;-86
2021/12/31 05:38:54;;;;;;;8.70;3.40;;;13.30;99.90;;;;;;5007047;28;20150;-86
2021/12/31 05:41:20;;;;;;;8.88;3.50;;;13.30;99.90;;;;;;4989312;28;20060;-86
2021/12/31 05:43:46;;;;;;;10.55;3.80;;;13.20;99.90;;;;;;4984590;28;20071;-88
2021/12/31 05:46:11;;;;;;;9.48;3.20;;;13.30;99.90;;;;;;4969254;28;20054;-83
2021/12/31 05:48:37;;;;;;;8.13;3.15;;;13.20;99.90;;;;;;4983064;28;20529;-85
2021/12/31 05:51:03;;;;;;;7.88;3.40;;;13.20;99.90;;;;;;4992757;28;20055;-86
2021/12/31 05:53:30;;;;;;;11.75;3.40;;;13.10;99.90;;;;;;5006174;28;20528;-87
2021/12/31 05:55:56;;;;;;;11.07;3.53;;;13.20;99.90;;;;;;4972242;28;20047;-86
2021/12/31 05:58:21;;;;;;;6.68;3.13;;;13.20;99.90;;;;;;4982469;28;20047;-85
2021/12/31 06:00:47;;;;;;;10.00;3.15;;;13.20;99.90;;;;;;5004656;28;20458;-87
2021/12/31 06:03:13;;;;;;;8.43;3.28;;;13.20;99.90;;;;;;5003437;28;20047;-85
2021/12/31 06:05:39;;;;;;;6.60;2.90;;;13.10;99.90;;;;;;5005677;28;20047;-86
2021/12/31 06:08:05;;;;;;;7.90;3.00;;;13.10;99.90;;;;;;4994728;28;20921;-86
2021/12/31 06:10:31;;;;;;;7.82;3.22;;;13.10;99.90;;;;;;5009604;28;20927;-85
2021/12/31 06:13:00;;;;;;;8.15;3.05;;;13.20;99.90;;;;;;4978329;28;20055;-88
2021/12/31 06:15:27;;;;;;;9.82;3.28;;;13.10;99.90;;;;;;4980332;28;20845;-87
2021/12/31 06:17:54;;;;;;;9.80;3.75;;;13.00;99.90;;;;;;5000780;28;20568;-86
2021/12/31 06:20:20;;;;;;;9.65;3.08;;;12.90;99.90;;;;;;5003582;28;20052;-89
2021/12/31 06:22:46;;;;;;;9.70;3.40;;;13.00;99.90;;;;;;4965802;28;20089;-86
2021/12/31 06:25:12;;;;;;;9.15;3.13;;;12.90;99.90;;;;;;5005339;28;20054;-87
2021/12/31 06:27:38;;;;;;;6.90;3.20;;;12.80;99.90;;;;;;4991244;28;20858;-86
2021/12/31 06:30:05;;;;;;;8.75;3.40;;;12.90;99.90;;;;;;5005928;28;20045;-86
2021/12/31 06:32:31;;;;;;;7.80;3.45;;;12.90;99.90;;;;;;5012246;28;20052;-86
2021/12/31 06:34:57;;;;;;;9.10;3.47;;;12.90;99.90;;;;;;5007756;28;20146;-86
2021/12/31 06:37:22;;;;;;;7.90;3.53;;;13.00;99.90;;;;;;5003551;28;20387;-87
2021/12/31 06:39:48;;;;;;;8.02;3.50;;;12.90;99.90;;;;;;5003885;28;20619;-87
2021/12/31 06:42:14;;;;;;;9.15;3.60;;;12.90;99.90;;;;;;4999073;28;20858;-87
2021/12/31 06:44:40;;;;;;;10.27;3.65;;;12.90;99.90;;;;;;4981897;28;20051;-86
2021/12/31 06:47:07;;;;;;;8.88;3.78;;;12.90;99.90;;;;;;4982892;28;20059;-85
2021/12/31 06:49:34;;;;;;;8.52;3.63;;;13.00;99.90;;;;;;5003380;28;20039;-86
2021/12/31 06:52:00;;;;;;;8.23;4.00;;;12.90;99.90;;;;;;5024483;28;20397;-85
2021/12/31 06:54:25;;;;;;;9.30;3.58;;;12.90;99.90;;;;;;4998006;28;20075;-88
2021/12/31 06:56:51;;;;;;;9.30;3.92;;;13.00;99.90;;;;;;5000585;28;20396;-86
2021/12/31 06:59:17;;;;;;;8.18;4.18;;;13.00;99.90;;;;;;4986247;28;20795;-86
2021/12/31 07:01:46;;;;;;;8.07;3.40;;;13.00;99.90;;;;;;5006103;28;20035;-85
2021/12/31 07:04:11;;;;;;;9.93;3.55;;;13.00;99.90;;;;;;4988425;28;21008;-87
2021/12/31 07:06:37;;;;;;;7.65;3.55;;;13.10;99.90;;;;;;4984973;28;20264;-87
2021/12/31 07:09:03;;;;;;;9.25;3.45;;;13.10;99.90;;;;;;4987145;28;20050;-86
2021/12/31 07:11:29;;;;;;;8.98;3.72;;;13.00;99.90;;;;;;5007067;28;20108;-90
2021/12/31 07:13:54;;;;;;;8.82;4.03;;;13.00;99.90;;;;;;4986692;28;20495;-85
2021/12/31 07:16:20;;;;;;;8.20;3.58;;;13.00;99.90;;;;;;4982547;28;20048;-85
2021/12/31 07:18:46;;;;;;;9.65;3.80;;;12.90;99.90;;;;;;5004839;28;20044;-86
2021/12/31 07:21:14;;;;;;;8.55;3.70;;;12.90;99.90;;;;;;4980085;28;20617;-87
2021/12/31 07:23:42;;;;;;;9.80;3.90;;;12.80;99.90;;;;;;5008921;28;20574;-84
2021/12/31 07:26:08;;;;;;;11.27;3.90;;;12.80;99.90;;;;;;5005109;28;20116;-85
2021/12/31 07:28:34;;;;;;;8.75;3.83;;;12.80;99.90;;;;;;4988813;28;20060;-89
2021/12/31 07:31:00;;;;;;;12.18;4.00;;;12.70;99.90;;;;;;4998999;28;20047;-83
2021/12/31 07:33:26;;;;;;;10.50;3.70;;;12.70;99.90;;;;;;5007688;28;20540;-84
2021/12/31 07:35:53;;;;;;;8.20;3.53;;;12.60;99.90;;;;;;4986461;28;20124;-88
2021/12/31 07:38:28;;;;;;;8.65;4.15;;;12.60;99.90;;;;;;5015176;28;20258;-85
2021/12/31 07:40:54;;;;;;;7.15;3.67;;;12.60;99.90;;;;;;5010476;28;20474;-85
2021/12/31 07:43:24;;;;;;;7.88;3.75;;;12.60;99.90;;;;;;4997862;28;20250;-86
2021/12/31 07:45:51;;;;;;;7.82;4.05;;;12.60;99.90;;;;;;5002121;28;20729;-85
2021/12/31 07:48:18;;;;;;;10.63;4.15;;;12.70;99.90;;;;;;5003855;28;20048;-87
2021/12/31 07:50:44;;;;;;;9.40;3.90;;;12.60;99.90;;;;;;5002695;28;20643;-86
2021/12/31 07:53:10;;;;;;;8.50;4.10;;;12.60;99.90;;;;;;5010604;28;20123;-87
2021/12/31 07:55:39;;;;;;;10.02;4.50;;;12.60;99.90;;;;;;5026966;28;20102;-88
2021/12/31 07:58:07;;;;;;;10.32;4.28;;;12.60;99.90;;;;;;5001901;28;20526;-87
2021/12/31 08:00:36;;;;;;;8.35;4.22;;;12.50;99.90;;;;;;4993050;28;20468;-88
2021/12/31 08:03:03;;;;;;;8.30;4.10;;;12.50;99.90;;;;;;4989363;28;20502;-86
2021/12/31 08:05:30;;;;;;;10.02;3.83;;;12.50;99.90;;;;;;4983315;28;20044;-85
2021/12/31 08:07:56;;;;;;;10.20;4.53;;;12.50;99.90;;;;;;5010544;28;20048;-86
2021/12/31 08:10:22;;;;;;;7.80;3.95;;;12.60;99.90;;;;;;5010752;28;20430;-87
2021/12/31 08:12:49;;;;;;;9.15;4.10;;;12.60;99.90;;;;;;5002842;28;20054;-87
2021/12/31 08:15:15;;;;;;;10.88;4.10;;;12.50;99.90;;;;;;4999465;28;20250;-88
2021/12/31 08:17:41;;;;;;;8.77;3.75;;;12.70;99.90;;;;;;4980748;28;20083;-88
2021/12/31 08:20:08;;;;;;;8.85;3.70;;;12.70;99.90;;;;;;4991288;28;20119;-88
2021/12/31 08:22:34;;;;;;;9.32;4.10;;;12.80;99.90;;;;;;5008891;28;21085;-85
2021/12/31 08:24:59;;;;;;;9.23;4.07;;;12.80;99.90;;;;;;5012516;28;20091;-85
2021/12/31 08:27:25;;;;;;;9.30;3.85;;;12.90;99.90;;;;;;5005934;28;20896;-84
2021/12/31 08:29:51;;;;;;;10.52;4.30;;;12.90;99.90;;;;;;5006086;28;20036;-85
2021/12/31 08:32:17;;;;;;;8.95;4.05;;;13.00;99.90;;;;;;4992939;28;20692;-85
2021/12/31 08:34:43;;;;;;;7.63;3.65;;;13.00;99.90;;;;;;4974983;28;20158;-87
2021/12/31 08:37:08;;;;;;;7.88;3.65;;;13.10;99.90;;;;;;5007683;28;21005;-88
2021/12/31 08:39:35;;;;;;;7.70;3.80;;;13.10;99.90;;;;;;5011790;28;20039;-86
2021/12/31 08:42:01;;;;;;;9.75;3.88;;;13.10;99.90;;;;;;5012474;28;20131;-86
2021/12/31 08:44:28;;;;;;;8.43;3.60;;;13.10;99.90;;;;;;5027383;28;20048;-87
2021/12/31 08:46:54;;;;;;;8.77;3.88;;;13.20;99.90;;;;;;4991236;28;20040;-86
2021/12/31 08:49:21;;;;;;;9.27;3.90;;;13.20;99.90;;;;;;5013273;28;20043;-83
2021/12/31 08:51:47;;;;;;;7.85;3.72;;;13.20;99.90;;;;;;5006895;28;20829;-84
2021/12/31 08:54:13;;;;;;;8.07;3.80;;;13.20;99.90;;;;;;4989185;28;20134;-85
2021/12/31 08:56:39;;;;;;;10.32;3.72;;;13.20;99.90;;;;;;5012900;28;20382;-86
2021/12/31 08:59:05;;;;;;;9.60;3.80;;;13.20;99.90;;;;;;5009287;28;20043;-86
2021/12/31 09:01:31;;;;;;;7.40;3.47;;;13.10;99.90;;;;;;5009530;28;20056;-86
2021/12/31 09:03:56;;;;;;;9.48;3.55;;;13.20;99.90;;;;;;5011734;28;20043;-86
2021/12/31 09:06:22;;;;;;;8.07;3.47;;;13.20;99.90;;;;;;5013710;28;20090;-86
2021/12/31 09:08:48;;;;;;;8.20;3.58;;;13.20;99.90;;;;;;4964316;28;20106;-90
2021/12/31 09:11:15;;;;;;;8.05;3.30;;;13.20;99.90;;;;;;4966094;28;20052;-86
2021/12/31 09:13:42;;;;;;;7.55;3.72;;;13.20;99.90;;;;;;5007546;28;20869;-83
2021/12/31 09:16:09;;;;;;;10.50;3.88;;;13.20;99.90;;;;;;5008472;28;20119;-83
2021/12/31 09:18:35;;;;;;;7.72;3.72;;;13.20;99.90;;;;;;4996553;28;20054;-88
2021/12/31 09:21:01;;;;;;;7.15;3.97;;;13.20;99.90;;;;;;5015750;28;20052;-87
2021/12/31 09:23:26;;;;;;;7.55;3.53;;;13.20;99.90;;;;;;5021059;28;20439;-86
2021/12/31 09:25:55;;;;;;;6.82;3.78;;;13.20;99.90;;;;;;5031989;28;20510;-84
2021/12/31 09:28:22;;;;;;;10.90;3.72;;;13.20;99.90;;;;;;5024995;28;20061;-86
2021/12/31 09:30:48;;;;;;;9.40;3.85;;;13.20;99.90;;;;;;5024606;28;20058;-86
2021/12/31 09:33:14;;;;;;;8.07;3.80;;;13.20;99.90;;;;;;5043504;28;20386;-87
2021/12/31 09:35:41;;;;;;;9.35;4.13;;;13.20;99.90;;;;;;5018713;28;20047;-87
2021/12/31 09:38:09;;;;;;;8.13;3.65;;;13.20;99.90;;;;;;4995003;28;20080;-85
2021/12/31 09:40:36;;;;;;;8.02;4.00;;;13.20;99.90;;;;;;5028207;28;20048;-87
2021/12/31 09:43:12;;;;;;;8.35;3.75;;;13.30;99.90;;;;;;4992870;28;20398;-85
2021/12/31 09:45:40;;;;;;;7.57;3.72;;;13.30;99.90;;;;;;4989236;28;20540;-87
2021/12/31 09:48:08;;;;;;;9.00;3.50;;;13.40;99.90;;;;;;5055322;28;20524;-85
2021/12/31 09:50:36;;;;;;;8.30;3.70;;;13.40;99.90;;;;;;5025813;28;20087;-87
2021/12/31 09:53:02;;;;;;;7.78;3.47;;;13.50;99.90;;;;;;4992614;28;20036;-87
2021/12/31 09:55:38;;;;;;;7.70;3.60;;;13.40;99.90;;;;;;5033956;28;20048;-87
2021/12/31 09:58:05;;;;;;;9.15;3.80;;;13.40;99.90;;;;;;5034379;28;20124;-86
2021/12/31 10:00:31;;;;;;;7.22;3.50;;;13.40;99.90;;;;;;5040753;28;20052;-87
2021/12/31 10:03:19;;;;;;;6.45;3.30;;;13.40;99.90;;;;;;5029669;28;20093;-86
2021/12/31 10:05:51;;;;;;;8.00;3.90;;;13.40;99.90;;;;;;5025098;28;20126;-86
2021/12/31 10:08:43;;;;;;;8.95;3.60;;;13.50;99.90;;;;;;4986282;28;20054;-83
2021/12/31 10:11:20;;;;;;;9.02;3.53;;;13.50;99.90;;;;;;4993410;28;20084;-85
2021/12/31 10:13:51;;;;;;;8.02;3.70;;;13.50;99.90;;;;;;5002965;28;20800;-87
2021/12/31 10:16:27;;;;;;;7.43;3.75;;;13.50;99.90;;;;;;5003210;28;20905;-86
2021/12/31 10:19:06;;;;;;;7.65;3.40;;;13.60;99.90;;;;;;5011585;28;20048;-88
2021/12/31 10:21:43;;;;;;;8.20;3.55;;;13.60;99.90;;;;;;4988927;28;20150;-89
2021/12/31 10:24:33;;;;;;;6.90;3.28;;;13.60;99.90;;;;;;5020602;28;20187;-86
2021/12/31 10:27:16;;;;;;;8.07;3.72;;;13.60;99.90;;;;;;5012720;28;20100;-88
2021/12/31 10:30:00;;;;;;;8.40;3.78;;;13.60;99.90;;;;;;5016853;28;20048;-86
2021/12/31 10:32:31;;;;;;;7.90;3.47;;;13.60;99.90;;;;;;4989762;28;20039;-85
2021/12/31 10:35:21;;;;;;;7.25;3.53;;;13.50;99.90;;;;;;5022797;28;20052;-89
2021/12/31 10:38:01;;;;;;;8.20;4.03;;;13.40;99.90;;;;;;4997565;28;20048;-86
2021/12/31 10:40:34;;;;;;;7.65;4.10;;;13.40;99.90;;;;;;4978160;28;20087;-85
2021/12/31 10:43:15;;;;;;;6.88;3.80;;;13.30;99.90;;;;;;4999805;28;20052;-84
2021/12/31 10:46:08;;;;;;;8.00;3.50;;;13.30;99.90;;;;;;4984453;28;20094;-86
2021/12/31 10:48:45;;;;;;;8.23;3.60;;;13.30;99.90;;;;;;4986219;28;20045;-83
2021/12/31 10:51:14;;;;;;;8.90;3.78;;;13.30;99.90;;;;;;5009369;28;20189;-88
2021/12/31 10:53:41;;;;;;;7.45;4.07;;;13.30;99.90;;;;;;5011043;28;20043;-86
2021/12/31 10:56:08;;;;;;;8.43;3.88;;;13.40;99.90;;;;;;5000188;28;20587;-84
2021/12/31 10:58:36;;;;;;;9.30;4.40;;;13.40;99.90;;;;;;5007387;28;20334;-88
2021/12/31 11:01:07;;;;;;;11.10;4.18;;;13.40;99.90;;;;;;4987724;28;20594;-88
2021/12/31 11:03:42;;;;;;;9.90;4.70;;;13.50;99.90;;;;;;4993619;28;20055;-93
2021/12/31 11:06:12;;;;;;;9.35;4.57;;;13.50;99.90;;;;;;4990299;28;20442;-87
2021/12/31 11:08:47;;;;;;;8.48;4.45;;;13.60;99.90;;;;;;5005778;28;20048;-91
2021/12/31 11:11:19;;;;;;;9.48;4.60;;;13.60;99.90;;;;;;4981110;28;20043;-91
2021/12/31 11:13:45;;;;;;;9.95;5.05;;;13.60;99.90;;;;;;4994539;28;20083;-88
2021/12/31 11:16:12;;;;;;;8.90;5.20;;;13.70;99.90;;;;;;4997135;28;20119;-86
2021/12/31 11:18:40;;;;;;;10.35;4.63;;;13.70;99.90;;;;;;4986797;28;20536;-87
2021/12/31 11:21:09;;;;;;;9.60;4.95;;;13.70;99.90;;;;;;5009439;28;20044;-87
2021/12/31 11:23:36;;;;;;;9.95;5.20;;;13.70;99.90;;;;;;5013214;28;20051;-86
2021/12/31 11:26:04;;;;;;;9.55;5.25;;;13.70;99.90;;;;;;5010143;28;20328;-85
2021/12/31 11:28:35;;;;;;;11.60;5.28;;;13.70;99.90;;;;;;5012903;28;20525;-86
2021/12/31 11:31:16;;;;;;;16.13;10.05;;;13.70;99.90;;;;;;5025965;28;20401;-87
2021/12/31 11:33:44;;;;;;;13.25;8.48;;;13.80;99.90;;;;;;5006377;28;20047;-86
2021/12/31 11:36:11;;;;;;;12.25;6.32;;;13.80;99.90;;;;;;5005726;28;20053;-87
2021/12/31 11:38:42;;;;;;;9.88;5.50;;;13.70;99.90;;;;;;4973273;28;20513;-87
2021/12/31 11:41:08;;;;;;;9.52;5.03;;;13.70;99.90;;;;;;4980320;28;20043;-86
2021/12/31 11:43:38;;;;;;;7.28;4.85;;;13.70;99.90;;;;;;4999993;28;20072;-89
2021/12/31 11:48:48;;;;;;;11.52;5.50;;;13.60;99.90;;;;;;4996104;28;20051;-89
2021/12/31 11:51:25;;;;;;;12.35;7.32;;;13.60;99.90;;;;;;5006151;28;20035;-88
2021/12/31 11:53:59;;;;;;;10.40;6.13;;;13.60;99.90;;;;;;4979153;28;20055;-87
2021/12/31 11:56:34;;;;;;;11.68;5.70;;;13.50;99.90;;;;;;4990396;28;20238;-89
2021/12/31 11:59:09;;;;;;;12.25;6.22;;;13.50;99.90;;;;;;5004724;28;20519;-87
2021/12/31 12:01:48;;;;;;;11.52;6.60;;;13.50;99.90;;;;;;4983948;28;20549;-86
2021/12/31 12:04:23;;;;;;;10.65;6.68;;;13.40;99.90;;;;;;4994286;28;20538;-88
2021/12/31 12:07:01;;;;;;;16.13;9.88;;;13.40;99.90;;;;;;5001422;28;20150;-89
2021/12/31 12:09:36;;;;;;;12.30;7.95;;;13.40;99.90;;;;;;5002275;28;21112;-86
2021/12/31 12:12:17;;;;;;;18.98;10.25;;;13.30;99.90;;;;;;4998978;28;20084;-85
2021/12/31 12:14:53;;;;;;;18.50;10.18;;;13.40;99.90;;;;;;5004367;28;20758;-85
2021/12/31 12:17:31;;;;;;;10.23;6.53;;;13.40;99.90;;;;;;4977119;28;20699;-87
2021/12/31 12:20:03;;;;;;;15.13;8.63;;;13.30;99.90;;;;;;4990121;28;20047;-88
2021/12/31 12:22:39;;;;;;;11.43;6.55;;;13.20;99.90;;;;;;4980440;28;20047;-88
2021/12/31 12:25:19;;;;;;;12.27;6.57;;;13.30;99.90;;;;;;5006660;28;20312;-88
2021/12/31 12:27:58;;;;;;;10.02;6.28;;;13.30;99.90;;;;;;5002488;28;20078;-87
2021/12/31 12:30:25;;;;;;;11.20;6.10;;;13.40;99.90;;;;;;4976246;28;20315;-86
2021/12/31 12:33:07;;;;;;;9.48;6.00;;;13.40;99.90;;;;;;5000401;28;20490;-91
2021/12/31 12:35:36;;;;;;;10.25;5.88;;;13.40;99.90;;;;;;5011579;28;20056;-87
2021/12/31 12:38:04;;;;;;;10.25;5.80;;;13.30;99.90;;;;;;5006560;28;20049;-88
2021/12/31 12:40:43;;;;;;;13.00;6.40;;;13.30;99.90;;;;;;4998944;28;20135;-89
2021/12/31 12:43:17;;;;;;;13.40;6.78;;;13.20;99.90;;;;;;4990336;28;20263;-88
2021/12/31 12:45:50;;;;;;;13.85;6.60;;;13.00;99.90;;;;;;4984828;28;20043;-89
2021/12/31 12:48:16;;;;;;;20.25;7.30;;;12.90;99.90;;;;;;4990934;28;20488;-86
2021/12/31 12:50:50;;;;;;;12.07;7.28;;;12.80;99.90;;;;;;4985661;28;20155;-89
2021/12/31 12:53:21;;;;;;;13.32;7.55;;;12.80;99.90;;;;;;4965485;28;21023;-87
2021/12/31 12:55:47;;;;;;;13.10;7.28;;;12.70;99.90;;;;;;4963893;28;20485;-90